createdAt,value
2023-05-03T00:00:37.824Z,8.61
2023-05-03T00:01:37.829Z,8.66
2023-05-03T00:02:37.944Z,8.62
2023-05-03T00:03:38.092Z,8.63
2023-05-03T00:04:38.020Z,8.63
2023-05-03T00:05:37.847Z,8.62
2023-05-03T00:06:37.778Z,8.61
2023-05-03T00:07:37.731Z,8.61
2023-05-03T00:08:37.960Z,8.62
2023-05-03T00:09:37.721Z,8.61
2023-05-03T00:10:37.713Z,8.63
2023-05-03T00:11:37.713Z,8.62
2023-05-03T00:12:38.501Z,8.62
2023-05-03T00:13:37.745Z,8.61
2023-05-03T00:14:37.661Z,8.63
2023-05-03T00:15:37.654Z,8.62
2023-05-03T00:16:37.670Z,8.61
2023-05-03T00:17:38.143Z,8.58
2023-05-03T00:18:37.615Z,8.52
2023-05-03T00:19:37.659Z,8.50
2023-05-03T00:20:37.583Z,8.40
2023-05-03T00:21:37.852Z,8.34
2023-05-03T00:22:38.408Z,8.23
2023-05-03T00:23:37.581Z,8.18
2023-05-03T00:24:37.550Z,8.16
2023-05-03T00:25:37.555Z,8.15
2023-05-03T00:26:37.531Z,8.16
2023-05-03T00:27:37.569Z,8.16
2023-05-03T00:28:37.506Z,8.12
2023-05-03T00:29:37.509Z,8.12
2023-05-03T00:30:37.486Z,8.10
2023-05-03T00:31:37.611Z,8.02
2023-05-03T00:32:37.504Z,7.98
2023-05-03T00:33:37.465Z,7.93
2023-05-03T00:34:37.464Z,7.87
2023-05-03T00:35:37.449Z,7.82
2023-05-03T00:36:37.428Z,7.75
2023-05-03T00:37:37.419Z,7.72
2023-05-03T00:38:37.401Z,7.67
2023-05-03T00:39:37.414Z,7.60
2023-05-03T00:40:37.380Z,7.55
2023-05-03T00:41:37.381Z,7.53
2023-05-03T00:42:37.355Z,7.43
2023-05-03T00:43:37.361Z,7.43
2023-05-03T00:44:38.155Z,7.37
2023-05-03T00:45:37.340Z,7.40
2023-05-03T00:46:37.356Z,7.37
2023-05-03T00:47:37.365Z,7.28
2023-05-03T00:48:37.296Z,7.25
2023-05-03T00:49:37.308Z,7.21
2023-05-03T00:50:37.277Z,7.15
2023-05-03T00:51:37.274Z,7.15
2023-05-03T00:52:37.251Z,7.09
2023-05-03T00:53:37.256Z,7.03
2023-05-03T00:54:37.237Z,6.98
2023-05-03T00:55:37.228Z,6.97
2023-05-03T00:56:44.419Z,6.97
2023-05-03T00:57:38.224Z,6.99
2023-05-03T00:58:37.187Z,6.94
2023-05-03T00:59:37.178Z,6.92
2023-05-03T01:00:37.163Z,6.88
2023-05-03T01:01:37.167Z,6.88
2023-05-03T01:02:37.241Z,6.84
2023-05-03T01:03:37.248Z,6.77
2023-05-03T01:04:37.127Z,6.76
2023-05-03T01:05:37.117Z,6.76
2023-05-03T01:06:37.139Z,6.71
2023-05-03T01:07:37.108Z,6.71
2023-05-03T01:08:37.073Z,6.69
2023-05-03T01:09:37.073Z,6.64
2023-05-03T01:10:37.055Z,6.64
2023-05-03T01:11:37.052Z,6.62
2023-05-03T01:12:37.037Z,6.61
2023-05-03T01:13:37.029Z,6.55
2023-05-03T01:14:37.015Z,6.54
2023-05-03T01:15:37.007Z,6.43
2023-05-03T01:16:37.069Z,6.46
2023-05-03T01:17:37.035Z,6.41
2023-05-03T01:18:36.962Z,6.40
2023-05-03T01:19:36.968Z,6.38
2023-05-03T01:20:36.950Z,6.40
2023-05-03T01:21:36.940Z,6.33
2023-05-03T01:22:36.920Z,6.33
2023-05-03T01:23:36.918Z,6.31
2023-05-03T01:24:36.904Z,6.34
2023-05-03T01:25:36.909Z,6.33
2023-05-03T01:26:36.881Z,6.33
2023-05-03T01:27:36.878Z,6.31
2023-05-03T01:28:36.863Z,6.31
2023-05-03T01:29:36.864Z,6.28
2023-05-03T01:30:36.842Z,6.28
2023-05-03T01:31:36.887Z,6.28
2023-05-03T01:32:36.901Z,6.27
2023-05-03T01:33:36.834Z,6.28
2023-05-03T01:34:36.808Z,6.27
2023-05-03T01:35:36.823Z,6.25
2023-05-03T01:36:36.770Z,6.22
2023-05-03T01:37:36.772Z,6.21
2023-05-03T01:38:36.753Z,6.18
2023-05-03T01:39:36.757Z,6.18
2023-05-03T01:40:36.747Z,6.22
2023-05-03T01:41:36.733Z,6.19
2023-05-03T01:42:36.724Z,6.21
2023-05-03T01:43:36.741Z,6.17
2023-05-03T01:44:36.705Z,6.19
2023-05-03T01:45:36.749Z,6.21
2023-05-03T01:46:36.685Z,6.21
2023-05-03T01:47:36.680Z,6.21
2023-05-03T01:48:36.649Z,6.18
2023-05-03T01:49:36.641Z,6.14
2023-05-03T01:50:36.635Z,6.12
2023-05-03T01:51:36.632Z,6.14
2023-05-03T01:52:36.634Z,6.12
2023-05-03T01:53:36.606Z,6.08
2023-05-03T01:54:36.591Z,6.06
2023-05-03T01:55:36.597Z,6.06
2023-05-03T01:56:36.572Z,6.06
2023-05-03T01:57:36.599Z,6.09
2023-05-03T01:58:36.543Z,6.08
2023-05-03T01:59:36.552Z,6.09
2023-05-03T02:00:36.544Z,6.08
2023-05-03T02:01:36.651Z,6.09
2023-05-03T02:02:36.548Z,6.12
2023-05-03T02:03:36.504Z,6.15
2023-05-03T02:04:36.572Z,6.21
2023-05-03T02:05:36.481Z,6.28
2023-05-03T02:06:36.785Z,6.34
2023-05-03T02:07:37.275Z,6.37
2023-05-03T02:08:36.454Z,6.38
2023-05-03T02:09:36.445Z,6.38
2023-05-03T02:10:36.422Z,6.40
2023-05-03T02:11:36.694Z,6.40
2023-05-03T02:12:36.415Z,6.38
2023-05-03T02:13:36.426Z,6.33
2023-05-03T02:14:36.384Z,6.28
2023-05-03T02:15:36.372Z,6.25
2023-05-03T02:16:36.401Z,6.22
2023-05-03T02:17:36.393Z,6.21
2023-05-03T02:18:36.337Z,6.25
2023-05-03T02:19:36.344Z,6.19
2023-05-03T02:20:36.322Z,6.22
2023-05-03T02:21:36.315Z,6.17
2023-05-03T02:22:36.296Z,6.17
2023-05-03T02:23:36.286Z,6.17
2023-05-03T02:24:36.300Z,6.18
2023-05-03T02:25:36.274Z,6.12
2023-05-03T02:26:36.253Z,6.08
2023-05-03T02:27:36.254Z,6.03
2023-05-03T02:28:36.225Z,5.99
2023-05-03T02:29:36.232Z,5.90
2023-05-03T02:30:36.313Z,5.89
2023-05-03T02:31:36.255Z,5.85
2023-05-03T02:32:36.257Z,5.83
2023-05-03T02:33:36.191Z,5.82
2023-05-03T02:34:36.168Z,5.79
2023-05-03T02:35:36.159Z,5.79
2023-05-03T02:36:36.156Z,5.81
2023-05-03T02:37:36.145Z,5.83
2023-05-03T02:38:36.120Z,5.79
2023-05-03T02:39:36.122Z,5.78
2023-05-03T02:40:36.102Z,5.76
2023-05-03T02:41:36.100Z,5.68
2023-05-03T02:42:36.084Z,5.71
2023-05-03T02:43:36.076Z,5.65
2023-05-03T02:44:36.067Z,5.64
2023-05-03T02:45:36.063Z,5.65
2023-05-03T02:46:36.134Z,5.61
2023-05-03T02:47:36.093Z,5.64
2023-05-03T02:48:36.029Z,5.64
2023-05-03T02:49:36.025Z,5.63
2023-05-03T02:50:35.995Z,5.64
2023-05-03T02:51:35.992Z,5.63
2023-05-03T02:52:35.980Z,5.63
2023-05-03T02:53:35.973Z,5.63
2023-05-03T02:54:35.954Z,5.60
2023-05-03T02:55:35.954Z,5.58
2023-05-03T02:56:35.928Z,5.54
2023-05-03T02:57:35.940Z,5.53
2023-05-03T02:58:35.914Z,5.46
2023-05-03T02:59:35.914Z,5.45
2023-05-03T03:00:35.886Z,5.43
2023-05-03T03:01:35.935Z,5.42
2023-05-03T03:02:35.968Z,5.42
2023-05-03T03:03:35.990Z,5.42
2023-05-03T03:04:35.858Z,5.40
2023-05-03T03:05:35.855Z,5.40
2023-05-03T03:06:35.984Z,5.39
2023-05-03T03:07:35.830Z,5.38
2023-05-03T03:08:35.808Z,5.38
2023-05-03T03:09:35.811Z,5.42
2023-05-03T03:10:35.798Z,5.42
2023-05-03T03:11:35.810Z,5.39
2023-05-03T03:12:35.759Z,5.40
2023-05-03T03:13:35.767Z,5.42
2023-05-03T03:14:35.735Z,5.42
2023-05-03T03:15:35.744Z,5.46
2023-05-03T03:16:35.817Z,5.46
2023-05-03T03:17:35.791Z,5.46
2023-05-03T03:18:35.696Z,5.48
2023-05-03T03:19:35.707Z,5.46
2023-05-03T03:20:35.676Z,5.43
2023-05-03T03:21:35.676Z,5.46
2023-05-03T03:22:35.889Z,5.48
2023-05-03T03:23:35.653Z,5.46
2023-05-03T03:24:35.642Z,5.46
2023-05-03T03:25:35.636Z,5.45
2023-05-03T03:26:35.637Z,5.40
2023-05-03T03:27:37.679Z,5.42
2023-05-03T03:28:35.605Z,5.40
2023-05-03T03:29:35.600Z,5.40
2023-05-03T03:30:35.580Z,5.40
2023-05-03T03:31:35.598Z,5.39
2023-05-03T03:32:35.600Z,5.35
2023-05-03T03:33:35.564Z,5.31
2023-05-03T03:34:35.555Z,5.30
2023-05-03T03:35:35.537Z,5.28
2023-05-03T03:36:35.515Z,5.30
2023-05-03T03:37:35.517Z,5.30
2023-05-03T03:38:35.493Z,5.28
2023-05-03T03:39:35.499Z,5.28
2023-05-03T03:40:35.479Z,5.30
2023-05-03T03:41:35.469Z,5.30
2023-05-03T03:42:35.449Z,5.31
2023-05-03T03:43:35.461Z,5.30
2023-05-03T03:44:35.434Z,5.27
2023-05-03T03:45:35.427Z,5.30
2023-05-03T03:46:35.452Z,5.25
2023-05-03T03:47:35.422Z,5.27
2023-05-03T03:48:35.391Z,5.24
2023-05-03T03:49:35.392Z,5.22
2023-05-03T03:50:35.372Z,5.22
2023-05-03T03:51:35.368Z,5.17
2023-05-03T03:52:36.075Z,5.18
2023-05-03T03:53:35.347Z,5.15
2023-05-03T03:54:35.329Z,5.13
2023-05-03T03:55:35.338Z,5.15
2023-05-03T03:56:35.305Z,5.12
2023-05-03T03:57:35.303Z,5.15
2023-05-03T03:58:35.283Z,5.28
2023-05-03T03:59:35.288Z,5.40
2023-05-03T04:00:35.263Z,5.46
2023-05-03T04:01:35.267Z,5.49
2023-05-03T04:02:35.330Z,5.54
2023-05-03T04:03:35.540Z,5.57
2023-05-03T04:04:35.299Z,5.56
2023-05-03T04:05:35.220Z,5.58
2023-05-03T04:06:35.254Z,5.53
2023-05-03T04:07:35.208Z,5.53
2023-05-03T04:08:35.186Z,5.49
2023-05-03T04:09:35.176Z,5.56
2023-05-03T04:10:35.158Z,5.68
2023-05-03T04:11:35.182Z,5.81
2023-05-03T04:12:35.141Z,5.96
2023-05-03T04:13:35.164Z,6.01
2023-05-03T04:14:35.112Z,6.08
2023-05-03T04:15:35.118Z,6.19
2023-05-03T04:16:35.117Z,6.33
2023-05-03T04:17:35.185Z,6.51
2023-05-03T04:18:35.082Z,6.61
2023-05-03T04:19:35.073Z,6.70
2023-05-03T04:20:35.054Z,6.70
2023-05-03T04:21:35.053Z,6.74
2023-05-03T04:22:35.043Z,6.73
2023-05-03T04:23:35.022Z,6.73
2023-05-03T04:24:35.024Z,6.71
2023-05-03T04:25:35.000Z,6.77
2023-05-03T04:26:35.012Z,6.74
2023-05-03T04:27:34.984Z,6.77
2023-05-03T04:28:34.987Z,6.81
2023-05-03T04:29:34.955Z,6.79
2023-05-03T04:30:35.001Z,6.84
2023-05-03T04:31:34.935Z,6.84
2023-05-03T04:32:35.008Z,6.85
2023-05-03T04:33:35.003Z,6.87
2023-05-03T04:34:34.921Z,6.88
2023-05-03T04:35:34.894Z,6.87
2023-05-03T04:36:34.890Z,6.87
2023-05-03T04:37:34.877Z,6.88
2023-05-03T04:38:34.876Z,6.89
2023-05-03T04:39:34.856Z,6.89
2023-05-03T04:40:34.876Z,6.88
2023-05-03T04:41:34.827Z,6.89
2023-05-03T04:42:34.833Z,6.88
2023-05-03T04:43:34.816Z,6.89
2023-05-03T04:44:34.812Z,6.89
2023-05-03T04:45:34.800Z,6.87
2023-05-03T04:46:34.818Z,6.89
2023-05-03T04:47:34.806Z,6.88
2023-05-03T04:48:34.829Z,6.85
2023-05-03T04:49:34.771Z,6.87
2023-05-03T04:50:34.757Z,6.85
2023-05-03T04:51:34.731Z,6.81
2023-05-03T04:52:34.725Z,6.84
2023-05-03T04:53:34.767Z,6.84
2023-05-03T04:54:34.703Z,6.84
2023-05-03T04:55:34.693Z,6.85
2023-05-03T04:56:34.704Z,6.81
2023-05-03T04:57:34.676Z,6.85
2023-05-03T04:58:34.684Z,6.85
2023-05-03T04:59:34.641Z,6.89
2023-05-03T05:00:34.637Z,6.91
2023-05-03T05:01:34.654Z,6.91
2023-05-03T05:02:34.752Z,6.92
2023-05-03T05:03:34.780Z,6.95
2023-05-03T05:04:34.598Z,6.97
2023-05-03T05:05:34.568Z,7.03
2023-05-03T05:06:34.621Z,7.05
2023-05-03T05:07:34.592Z,7.07
2023-05-03T05:08:34.552Z,7.10
2023-05-03T05:09:34.538Z,7.10
2023-05-03T05:10:34.578Z,7.17
2023-05-03T05:11:34.521Z,7.21
2023-05-03T05:12:34.504Z,7.24
2023-05-03T05:13:34.498Z,7.23
2023-05-03T05:14:34.664Z,7.28
2023-05-03T05:15:34.463Z,7.32
2023-05-03T05:16:34.528Z,7.39
2023-05-03T05:17:34.496Z,7.34
2023-05-03T05:18:34.507Z,7.39
2023-05-03T05:19:34.426Z,7.46
2023-05-03T05:20:34.431Z,7.49
2023-05-03T05:21:34.404Z,7.53
2023-05-03T05:22:34.399Z,7.57
2023-05-03T05:23:34.381Z,7.58
2023-05-03T05:24:34.386Z,7.53
2023-05-03T05:25:34.355Z,7.55
2023-05-03T05:26:34.359Z,7.53
2023-05-03T05:27:34.341Z,7.61
2023-05-03T05:28:34.331Z,7.61
2023-05-03T05:29:34.323Z,7.64
2023-05-03T05:30:34.323Z,7.68
2023-05-03T05:31:34.322Z,7.68
2023-05-03T05:32:34.291Z,7.69
2023-05-03T05:33:34.323Z,7.71
2023-05-03T05:34:43.730Z,7.74
2023-05-03T05:35:35.278Z,7.72
2023-05-03T05:36:34.242Z,7.72
2023-05-03T05:37:34.236Z,7.77
2023-05-03T05:38:34.223Z,7.79
2023-05-03T05:39:34.206Z,7.83
2023-05-03T05:40:34.218Z,7.89
2023-05-03T05:41:34.185Z,7.95
2023-05-03T05:42:34.200Z,8.01
2023-05-03T05:43:34.167Z,8.04
2023-05-03T05:44:34.163Z,8.10
2023-05-03T05:45:34.158Z,8.16
2023-05-03T05:46:34.154Z,8.23
2023-05-03T05:47:34.146Z,8.26
2023-05-03T05:48:34.117Z,8.33
2023-05-03T05:49:34.101Z,8.38
2023-05-03T05:50:34.091Z,8.48
2023-05-03T05:51:34.082Z,8.58
2023-05-03T05:52:34.078Z,8.71
2023-05-03T05:53:34.050Z,8.73
2023-05-03T05:54:34.054Z,8.68
2023-05-03T05:55:34.041Z,8.70
2023-05-03T05:56:34.039Z,8.79
2023-05-03T05:57:34.013Z,8.79
2023-05-03T05:58:34.011Z,8.66
2023-05-03T05:59:33.988Z,8.59
2023-05-03T06:00:33.995Z,8.63
2023-05-03T06:01:33.986Z,8.65
2023-05-03T06:02:34.078Z,8.71
2023-05-03T06:03:33.949Z,8.76
2023-05-03T06:04:33.970Z,8.76
2023-05-03T06:05:33.996Z,8.80
2023-05-03T06:06:33.983Z,8.81
2023-05-03T06:07:33.905Z,8.94
2023-05-03T06:08:33.928Z,8.99
2023-05-03T06:09:33.899Z,9.02
2023-05-03T06:10:33.893Z,9.10
2023-05-03T06:11:33.880Z,9.15
2023-05-03T06:12:33.858Z,9.20
2023-05-03T06:13:33.853Z,9.24
2023-05-03T06:14:33.852Z,9.28
2023-05-03T06:15:33.824Z,9.31
2023-05-03T06:16:33.893Z,9.38
2023-05-03T06:17:33.844Z,9.47
2023-05-03T06:18:33.811Z,9.53
2023-05-03T06:19:33.784Z,9.58
2023-05-03T06:20:33.798Z,9.61
2023-05-03T06:21:33.766Z,9.65
2023-05-03T06:22:33.785Z,9.75
2023-05-03T06:23:33.742Z,9.81
2023-05-03T06:24:33.736Z,9.93
2023-05-03T06:25:33.710Z,9.97
2023-05-03T06:26:33.717Z,10.02
2023-05-03T06:27:34.095Z,10.11
2023-05-03T06:28:33.701Z,10.15
2023-05-03T06:29:33.678Z,10.23
2023-05-03T06:30:33.672Z,10.27
2023-05-03T06:31:33.687Z,10.36
2023-05-03T06:32:33.701Z,10.42
2023-05-03T06:33:33.637Z,10.52
2023-05-03T06:34:33.634Z,10.56
2023-05-03T06:35:33.614Z,10.63
2023-05-03T06:36:33.610Z,10.61
2023-05-03T06:37:33.594Z,10.63
2023-05-03T06:38:33.586Z,10.70
2023-05-03T06:39:33.570Z,10.68
2023-05-03T06:40:33.573Z,10.71
2023-05-03T06:41:33.557Z,10.76
2023-05-03T06:42:33.544Z,10.82
2023-05-03T06:43:33.545Z,10.88
2023-05-03T06:44:33.547Z,10.88
2023-05-03T06:45:33.509Z,10.88
2023-05-03T06:46:33.535Z,10.88
2023-05-03T06:47:33.515Z,10.97
2023-05-03T06:48:33.554Z,11.04
2023-05-03T06:49:33.460Z,11.10
2023-05-03T06:50:33.478Z,11.10
2023-05-03T06:51:34.250Z,10.92
2023-05-03T06:52:33.439Z,10.81
2023-05-03T06:53:33.419Z,10.82
2023-05-03T06:54:33.412Z,10.76
2023-05-03T06:55:33.403Z,10.73
2023-05-03T06:56:33.396Z,10.73
2023-05-03T06:57:33.380Z,10.84
2023-05-03T06:58:33.426Z,11.02
2023-05-03T06:59:34.074Z,11.18
2023-05-03T07:00:33.365Z,11.35
2023-05-03T07:01:33.368Z,11.40
2023-05-03T07:02:33.373Z,11.27
2023-05-03T07:03:33.370Z,11.29
2023-05-03T07:04:33.317Z,11.47
2023-05-03T07:05:33.283Z,11.62
2023-05-03T07:06:40.668Z,11.57
2023-05-03T07:07:34.268Z,11.49
2023-05-03T07:08:33.257Z,11.32
2023-05-03T07:09:42.612Z,11.19
2023-05-03T07:10:34.243Z,11.29
2023-05-03T07:11:33.216Z,11.49
2023-05-03T07:12:33.212Z,11.65
2023-05-03T07:13:33.196Z,11.61
2023-05-03T07:14:33.189Z,11.75
2023-05-03T07:15:33.178Z,11.82
2023-05-03T07:16:33.195Z,11.70
2023-05-03T07:17:33.183Z,11.46
2023-05-03T07:18:33.158Z,11.60
2023-05-03T07:19:33.133Z,11.76
2023-05-03T07:20:33.129Z,11.90
2023-05-03T07:21:33.108Z,11.96
2023-05-03T07:22:33.118Z,11.94
2023-05-03T07:23:33.086Z,11.83
2023-05-03T07:24:33.091Z,11.95
2023-05-03T07:25:33.092Z,11.94
2023-05-03T07:26:33.055Z,12.02
2023-05-03T07:27:33.045Z,12.17
2023-05-03T07:28:33.050Z,12.31
2023-05-03T07:29:33.019Z,12.38
2023-05-03T07:30:33.029Z,12.35
2023-05-03T07:31:33.001Z,12.09
2023-05-03T07:32:33.103Z,12.20
2023-05-03T07:33:33.239Z,12.27
2023-05-03T07:34:33.034Z,12.31
2023-05-03T07:35:32.961Z,12.56
2023-05-03T07:36:32.958Z,12.64
2023-05-03T07:37:32.933Z,12.78
2023-05-03T07:38:32.944Z,12.90
2023-05-03T07:39:32.910Z,13.12
2023-05-03T07:40:33.306Z,13.15
2023-05-03T07:41:32.906Z,13.25
2023-05-03T07:42:32.893Z,13.36
2023-05-03T07:43:32.873Z,13.48
2023-05-03T07:44:32.907Z,13.64
2023-05-03T07:45:32.921Z,13.82
2023-05-03T07:46:32.847Z,13.73
2023-05-03T07:47:32.890Z,13.59
2023-05-03T07:48:32.824Z,13.49
2023-05-03T07:49:32.803Z,13.55
2023-05-03T07:50:32.813Z,13.67
2023-05-03T07:51:32.815Z,13.79
2023-05-03T07:52:32.772Z,13.95
2023-05-03T07:53:32.769Z,13.95
2023-05-03T07:54:32.982Z,14.10
2023-05-03T07:55:32.749Z,14.06
2023-05-03T07:56:32.742Z,14.09
2023-05-03T07:57:32.716Z,14.07
2023-05-03T07:58:39.978Z,14.02
2023-05-03T07:59:33.696Z,13.78
2023-05-03T08:00:32.703Z,13.78
2023-05-03T08:01:32.677Z,13.52
2023-05-03T08:02:32.831Z,13.49
2023-05-03T08:03:32.883Z,13.59
2023-05-03T08:04:32.795Z,13.70
2023-05-03T08:05:32.669Z,13.99
2023-05-03T08:06:32.727Z,14.29
2023-05-03T08:07:32.614Z,14.28
2023-05-03T08:08:32.601Z,14.21
2023-05-03T08:09:32.592Z,14.24
2023-05-03T08:10:32.633Z,14.60
2023-05-03T08:11:32.603Z,14.69
2023-05-03T08:12:32.567Z,14.62
2023-05-03T08:13:32.588Z,14.54
2023-05-03T08:14:32.551Z,14.52
2023-05-03T08:15:32.555Z,14.70
2023-05-03T08:16:32.553Z,14.52
2023-05-03T08:17:32.538Z,14.04
2023-05-03T08:18:32.499Z,13.66
2023-05-03T08:19:32.477Z,13.52
2023-05-03T08:20:32.476Z,13.55
2023-05-03T08:21:32.465Z,13.59
2023-05-03T08:22:32.466Z,13.67
2023-05-03T08:23:32.437Z,13.70
2023-05-03T08:24:32.444Z,13.67
2023-05-03T08:25:32.424Z,13.67
2023-05-03T08:26:32.414Z,13.71
2023-05-03T08:27:32.400Z,13.59
2023-05-03T08:28:32.393Z,13.55
2023-05-03T08:29:32.371Z,13.54
2023-05-03T08:30:32.376Z,13.42
2023-05-03T08:31:32.600Z,13.49
2023-05-03T08:32:32.364Z,13.78
2023-05-03T08:33:32.328Z,14.10
2023-05-03T08:34:32.337Z,14.39
2023-05-03T08:35:32.342Z,14.61
2023-05-03T08:36:32.305Z,14.81
2023-05-03T08:37:32.291Z,14.96
2023-05-03T08:38:32.292Z,15.14
2023-05-03T08:39:32.361Z,15.14
2023-05-03T08:40:32.266Z,15.35
2023-05-03T08:41:32.262Z,15.41
2023-05-03T08:42:32.229Z,15.31
2023-05-03T08:43:32.229Z,15.21
2023-05-03T08:44:32.391Z,15.20
2023-05-03T08:45:32.205Z,15.31
2023-05-03T08:46:32.228Z,15.57
2023-05-03T08:47:32.224Z,15.72
2023-05-03T08:48:32.165Z,15.57
2023-05-03T08:49:32.165Z,15.53
2023-05-03T08:50:32.136Z,15.60
2023-05-03T08:51:32.168Z,15.69
2023-05-03T08:52:32.124Z,15.76
2023-05-03T08:53:32.175Z,15.90
2023-05-03T08:54:32.095Z,16.05
2023-05-03T08:55:32.090Z,16.30
2023-05-03T08:56:32.076Z,16.23
2023-05-03T08:57:32.078Z,15.94
2023-05-03T08:58:32.061Z,15.74
2023-05-03T08:59:32.059Z,15.67
2023-05-03T09:00:32.031Z,15.74
2023-05-03T09:01:32.060Z,15.67
2023-05-03T09:02:32.158Z,15.59
2023-05-03T09:03:32.043Z,15.69
2023-05-03T09:04:32.072Z,15.74
2023-05-03T09:05:31.984Z,15.64
2023-05-03T09:06:31.981Z,15.96
2023-05-03T09:07:31.965Z,16.20
2023-05-03T09:08:31.946Z,16.43
2023-05-03T09:09:31.986Z,16.20
2023-05-03T09:10:31.927Z,15.76
2023-05-03T09:11:31.924Z,15.47
2023-05-03T09:12:32.625Z,15.57
2023-05-03T09:13:31.900Z,15.76
2023-05-03T09:14:31.885Z,15.80
2023-05-03T09:15:31.905Z,15.93
2023-05-03T09:16:31.893Z,16.09
2023-05-03T09:17:31.885Z,15.96
2023-05-03T09:18:31.832Z,15.62
2023-05-03T09:19:31.837Z,15.57
2023-05-03T09:20:31.815Z,15.64
2023-05-03T09:21:32.304Z,15.78
2023-05-03T09:22:31.799Z,16.05
2023-05-03T09:23:32.021Z,15.97
2023-05-03T09:24:31.777Z,15.97
2023-05-03T09:25:32.605Z,15.89
2023-05-03T09:26:31.757Z,16.08
2023-05-03T09:27:31.755Z,16.05
2023-05-03T09:28:31.736Z,16.08
2023-05-03T09:29:31.836Z,16.17
2023-05-03T09:30:31.712Z,16.20
2023-05-03T09:31:31.719Z,16.23
2023-05-03T09:32:31.704Z,16.31
2023-05-03T09:33:31.695Z,16.45
2023-05-03T09:34:31.700Z,16.42
2023-05-03T09:35:31.669Z,16.49
2023-05-03T09:36:31.640Z,16.17
2023-05-03T09:37:31.644Z,16.05
2023-05-03T09:38:31.635Z,16.20
2023-05-03T09:39:31.711Z,16.12
2023-05-03T09:40:31.604Z,15.92
2023-05-03T09:41:31.602Z,15.89
2023-05-03T09:42:31.595Z,16.07
2023-05-03T09:43:31.581Z,16.28
2023-05-03T09:44:31.556Z,16.50
2023-05-03T09:45:31.663Z,16.63
2023-05-03T09:46:31.614Z,16.81
2023-05-03T09:47:32.323Z,16.71
2023-05-03T09:48:31.513Z,16.81
2023-05-03T09:49:31.521Z,16.83
2023-05-03T09:50:31.488Z,16.78
2023-05-03T09:51:31.494Z,16.96
2023-05-03T09:52:31.474Z,16.98
2023-05-03T09:53:31.466Z,17.06
2023-05-03T09:54:31.461Z,17.21
2023-05-03T09:55:31.468Z,17.28
2023-05-03T09:56:31.428Z,17.12
2023-05-03T09:57:31.428Z,17.01
2023-05-03T09:58:31.401Z,17.00
2023-05-03T09:59:31.403Z,17.15
2023-05-03T10:00:31.399Z,17.18
2023-05-03T10:01:31.473Z,17.15
2023-05-03T10:02:31.397Z,17.03
2023-05-03T10:03:31.406Z,17.28
2023-05-03T10:04:31.340Z,17.21
2023-05-03T10:05:31.356Z,16.97
2023-05-03T10:06:31.379Z,16.93
2023-05-03T10:07:31.320Z,16.85
2023-05-03T10:08:31.299Z,16.73
2023-05-03T10:09:31.299Z,16.89
2023-05-03T10:10:31.283Z,16.79
2023-05-03T10:11:31.291Z,16.88
2023-05-03T10:12:31.263Z,16.70
2023-05-03T10:13:31.253Z,16.66
2023-05-03T10:14:31.255Z,16.81
2023-05-03T10:15:31.260Z,17.11
2023-05-03T10:16:31.227Z,16.97
2023-05-03T10:17:43.351Z,17.01
2023-05-03T10:18:32.242Z,17.00
2023-05-03T10:19:31.201Z,17.15
2023-05-03T10:20:31.185Z,17.28
2023-05-03T10:21:31.172Z,17.52
2023-05-03T10:22:31.148Z,17.62
2023-05-03T10:23:31.151Z,17.55
2023-05-03T10:24:31.126Z,17.48
2023-05-03T10:25:31.154Z,17.37
2023-05-03T10:26:31.128Z,17.21
2023-05-03T10:27:31.112Z,17.16
2023-05-03T10:28:31.898Z,17.22
2023-05-03T10:29:31.079Z,17.26
2023-05-03T10:30:31.088Z,17.43
2023-05-03T10:31:31.102Z,17.56
2023-05-03T10:32:31.096Z,17.58
2023-05-03T10:33:31.029Z,17.33
2023-05-03T10:34:31.038Z,17.31
2023-05-03T10:35:31.009Z,17.44
2023-05-03T10:36:45.928Z,17.46
2023-05-03T10:37:32.786Z,17.28
2023-05-03T10:38:30.985Z,17.08
2023-05-03T10:39:30.983Z,16.93
2023-05-03T10:40:30.974Z,17.01
2023-05-03T10:41:30.946Z,17.06
2023-05-03T10:42:30.951Z,16.94
2023-05-03T10:43:30.943Z,17.06
2023-05-03T10:44:30.929Z,17.14
2023-05-03T10:45:30.898Z,17.12
2023-05-03T10:46:30.935Z,17.08
2023-05-03T10:47:30.911Z,17.04
2023-05-03T10:48:30.903Z,17.30
2023-05-03T10:49:30.861Z,17.55
2023-05-03T10:50:30.869Z,17.84
2023-05-03T10:51:31.055Z,18.11
2023-05-03T10:52:30.839Z,17.93
2023-05-03T10:53:30.814Z,17.79
2023-05-03T10:54:30.821Z,17.78
2023-05-03T10:55:30.797Z,17.71
2023-05-03T10:56:30.804Z,17.72
2023-05-03T10:57:30.778Z,17.71
2023-05-03T10:58:30.770Z,17.86
2023-05-03T10:59:30.761Z,18.03
2023-05-03T11:00:30.761Z,17.86
2023-05-03T11:01:30.758Z,17.89
2023-05-03T11:02:30.752Z,18.12
2023-05-03T11:03:30.704Z,18.36
2023-05-03T11:04:31.948Z,18.55
2023-05-03T11:05:30.680Z,18.62
2023-05-03T11:06:30.772Z,18.76
2023-05-03T11:07:30.661Z,19.07
2023-05-03T11:08:30.664Z,19.37
2023-05-03T11:09:30.644Z,18.76
2023-05-03T11:10:30.636Z,18.32
2023-05-03T11:11:30.620Z,17.95
2023-05-03T11:12:30.612Z,17.74
2023-05-03T11:13:30.609Z,17.58
2023-05-03T11:14:30.601Z,17.41
2023-05-03T11:15:30.571Z,17.38
2023-05-03T11:16:30.605Z,17.41
2023-05-03T11:17:30.565Z,17.43
2023-05-03T11:18:30.558Z,17.58
2023-05-03T11:19:30.543Z,17.90
2023-05-03T11:20:30.530Z,18.15
2023-05-03T11:21:30.511Z,18.80
2023-05-03T11:22:30.503Z,19.33
2023-05-03T11:23:30.486Z,19.59
2023-05-03T11:24:30.488Z,19.37
2023-05-03T11:25:30.488Z,19.74
2023-05-03T11:26:30.476Z,19.84
2023-05-03T11:27:30.443Z,20.03
2023-05-03T11:28:30.446Z,20.23
2023-05-03T11:29:30.418Z,20.29
2023-05-03T11:30:30.429Z,20.59
2023-05-03T11:31:30.529Z,20.39
2023-05-03T11:32:30.427Z,20.10
2023-05-03T11:33:30.376Z,19.86
2023-05-03T11:34:30.373Z,19.71
2023-05-03T11:35:30.352Z,19.65
2023-05-03T11:36:30.360Z,19.55
2023-05-03T11:37:30.336Z,19.28
2023-05-03T11:38:30.332Z,19.21
2023-05-03T11:39:30.313Z,19.46
2023-05-03T11:40:30.321Z,19.32
2023-05-03T11:41:30.299Z,19.10
2023-05-03T11:42:30.296Z,18.95
2023-05-03T11:43:30.273Z,19.28
2023-05-03T11:44:30.307Z,19.59
2023-05-03T11:45:30.241Z,19.74
2023-05-03T11:46:30.433Z,20.01
2023-05-03T11:47:30.294Z,20.05
2023-05-03T11:48:30.346Z,19.88
2023-05-03T11:49:30.200Z,19.68
2023-05-03T11:50:30.244Z,19.18
2023-05-03T11:51:30.206Z,19.36
2023-05-03T11:52:30.188Z,19.47
2023-05-03T11:53:30.180Z,19.83
2023-05-03T11:54:30.152Z,20.05
2023-05-03T11:55:30.139Z,20.43
2023-05-03T11:56:30.133Z,20.01
2023-05-03T11:57:30.116Z,19.65
2023-05-03T11:58:30.134Z,19.43
2023-05-03T11:59:30.103Z,19.59
2023-05-03T12:00:30.090Z,19.77
2023-05-03T12:01:30.305Z,19.58
2023-05-03T12:02:30.188Z,19.76
2023-05-03T12:03:32.225Z,19.94
2023-05-03T12:04:30.190Z,19.91
2023-05-03T12:05:30.224Z,20.05
2023-05-03T12:06:30.621Z,20.01
2023-05-03T12:07:30.228Z,20.14
2023-05-03T12:08:30.918Z,20.38
2023-05-03T12:09:30.162Z,20.50
2023-05-03T12:10:30.561Z,20.38
2023-05-03T12:11:32.192Z,20.54
2023-05-03T12:12:32.426Z,20.82
2023-05-03T12:13:31.143Z,21.06
2023-05-03T12:14:30.039Z,21.22
2023-05-03T12:15:30.304Z,20.79
2023-05-03T12:16:30.001Z,20.39
2023-05-03T12:17:30.068Z,20.79
2023-05-03T12:18:30.165Z,21.07
2023-05-03T12:19:32.724Z,20.74
2023-05-03T12:21:31.837Z,21.10
2023-05-03T12:22:30.748Z,21.10
2023-05-03T12:23:30.032Z,21.17
2023-05-03T12:24:32.193Z,21.21
2023-05-03T12:25:33.490Z,21.62
2023-05-03T12:26:29.912Z,21.65
2023-05-03T12:27:32.482Z,21.50
2023-05-03T12:28:29.821Z,21.68
2023-05-03T12:29:29.867Z,21.68
2023-05-03T12:30:29.829Z,21.79
2023-05-03T12:31:29.900Z,21.69
2023-05-03T12:32:29.948Z,21.49
2023-05-03T12:33:33.311Z,21.42
2023-05-03T12:34:35.065Z,21.38
2023-05-03T12:35:33.552Z,21.50
2023-05-03T12:36:31.693Z,21.72
2023-05-03T12:37:33.219Z,21.83
2023-05-03T12:38:31.147Z,21.69
2023-05-03T12:39:32.467Z,21.40
2023-05-03T12:40:34.154Z,21.72
2023-05-03T12:42:04.526Z,22.12
2023-05-03T12:42:33.012Z,21.96
2023-05-03T12:43:29.707Z,21.71
2023-05-03T12:44:29.686Z,21.13
2023-05-03T12:45:31.400Z,20.98
2023-05-03T12:46:34.485Z,20.87
2023-05-03T12:47:30.762Z,20.97
2023-05-03T12:48:32.550Z,21.37
2023-05-03T12:49:29.838Z,21.49
2023-05-03T12:50:31.325Z,21.67
2023-05-03T12:51:33.138Z,22.06
2023-05-03T12:53:29.670Z,22.02
2023-05-03T12:54:33.275Z,22.12
2023-05-03T12:56:32.569Z,21.72
2023-05-03T12:57:30.625Z,21.64
2023-05-03T12:59:40.985Z,21.92
2023-05-03T13:00:35.572Z,21.90
2023-05-03T13:03:33.338Z,21.86
2023-05-03T13:05:35.257Z,22.28
2023-05-03T13:06:30.549Z,22.51
2023-05-03T13:07:30.441Z,22.79
2023-05-03T13:08:34.778Z,22.97
2023-05-03T13:10:30.349Z,23.28
2023-05-03T13:11:29.417Z,23.17
2023-05-03T13:12:29.320Z,23.17
2023-05-03T13:13:29.328Z,22.73